createdAt,value
2022-11-10T00:00:30.026Z,2.10
2022-11-10T00:02:51.972Z,2.13
2022-11-10T00:05:15.442Z,1.70
2022-11-10T00:07:37.878Z,2.10
2022-11-10T00:09:59.746Z,2.07
2022-11-10T00:12:23.287Z,1.80
2022-11-10T00:15:02.976Z,2.20
2022-11-10T00:17:26.247Z,2.47
2022-11-10T00:19:48.415Z,2.27
2022-11-10T00:22:10.214Z,2.20
2022-11-10T00:24:32.279Z,1.80
2022-11-10T00:26:55.091Z,1.80
2022-11-10T00:29:17.100Z,1.90
2022-11-10T00:31:39.907Z,1.53
2022-11-10T00:34:03.152Z,2.13
2022-11-10T00:36:25.140Z,2.47
2022-11-10T00:38:47.084Z,1.70
2022-11-10T00:41:09.070Z,2.13
2022-11-10T00:43:32.466Z,1.50
2022-11-10T00:45:54.702Z,1.43
2022-11-10T00:48:16.726Z,2.00
2022-11-10T00:50:39.911Z,1.53
2022-11-10T00:53:02.134Z,1.63
2022-11-10T00:55:24.276Z,1.47
2022-11-10T00:57:46.243Z,1.90
2022-11-10T01:00:09.928Z,1.80
2022-11-10T01:02:31.811Z,2.40
2022-11-10T01:04:53.968Z,2.37
2022-11-10T01:07:17.179Z,1.70
2022-11-10T01:09:39.384Z,1.40
2022-11-10T01:12:01.304Z,1.60
2022-11-10T01:14:23.241Z,1.60
2022-11-10T01:16:45.437Z,2.17
2022-11-10T01:19:07.580Z,1.53
2022-11-10T01:21:30.910Z,1.90
2022-11-10T01:23:54.259Z,1.43
2022-11-10T01:26:16.685Z,2.83
2022-11-10T01:28:38.722Z,1.80
2022-11-10T01:31:01.186Z,1.40
2022-11-10T01:33:23.214Z,1.20
2022-11-10T01:35:47.007Z,1.33
2022-11-10T01:38:09.239Z,1.40
2022-11-10T01:40:32.660Z,1.60
2022-11-10T01:42:56.696Z,1.30
2022-11-10T01:45:52.849Z,2.00
2022-11-10T01:48:19.838Z,1.50
2022-11-10T01:50:44.555Z,1.60
2022-11-10T01:53:10.726Z,1.47
2022-11-10T01:55:36.766Z,3.80
2022-11-10T01:57:58.890Z,1.77
2022-11-10T02:00:21.446Z,1.87
2022-11-10T02:02:48.838Z,1.50
2022-11-10T02:05:10.988Z,1.50
2022-11-10T02:07:33.614Z,1.73
2022-11-10T02:09:55.776Z,1.50
2022-11-10T02:12:36.760Z,1.10
2022-11-10T02:14:58.668Z,1.43
2022-11-10T02:17:20.712Z,1.70
2022-11-10T02:19:43.119Z,2.10
2022-11-10T02:22:06.920Z,1.70
2022-11-10T02:24:28.971Z,1.60
2022-11-10T02:26:54.350Z,1.53
2022-11-10T02:29:16.440Z,1.10
2022-11-10T02:31:39.304Z,3.20
2022-11-10T02:34:01.233Z,6.43
2022-11-10T02:36:23.224Z,5.63
2022-11-10T02:38:46.692Z,3.53
2022-11-10T02:41:08.670Z,3.00
2022-11-10T02:43:30.987Z,2.50
2022-11-10T02:45:53.590Z,1.80
2022-11-10T02:48:17.176Z,1.53
2022-11-10T02:50:39.915Z,1.93
2022-11-10T02:53:01.681Z,1.30
2022-11-10T02:55:25.381Z,1.90
2022-11-10T02:57:47.259Z,1.40
2022-11-10T03:00:10.407Z,1.30
2022-11-10T03:02:32.544Z,1.40
2022-11-10T03:04:54.653Z,1.33
2022-11-10T03:07:16.824Z,1.40
2022-11-10T03:09:38.825Z,1.70
2022-11-10T03:12:02.131Z,1.97
2022-11-10T03:14:24.271Z,1.53
2022-11-10T03:16:46.157Z,1.77
2022-11-10T03:19:08.908Z,1.13
2022-11-10T03:21:30.847Z,2.10
2022-11-10T03:23:52.771Z,1.50
2022-11-10T03:26:15.074Z,1.13
2022-11-10T03:28:38.264Z,1.80
2022-11-10T03:31:00.183Z,1.90
2022-11-10T03:33:22.492Z,1.43
2022-11-10T03:35:44.765Z,1.70
2022-11-10T03:38:06.903Z,2.47
2022-11-10T03:40:29.121Z,2.13
2022-11-10T03:42:51.174Z,1.80
2022-11-10T03:45:15.628Z,1.70
2022-11-10T03:47:37.551Z,1.67
2022-11-10T03:49:59.561Z,2.83
2022-11-10T03:52:21.257Z,1.33
2022-11-10T03:54:43.143Z,1.70
2022-11-10T03:57:05.344Z,1.90
2022-11-10T03:59:27.228Z,1.30
2022-11-10T04:01:50.503Z,1.20
2022-11-10T04:04:33.542Z,2.00
2022-11-10T04:07:13.140Z,1.17
2022-11-10T04:09:35.367Z,1.40
2022-11-10T04:12:14.950Z,1.87
2022-11-10T04:14:54.937Z,2.20
2022-11-10T04:17:19.776Z,2.10
2022-11-10T04:19:46.608Z,1.70
2022-11-10T04:22:28.713Z,1.97
2022-11-10T04:24:50.583Z,1.33
2022-11-10T04:27:12.497Z,1.80
2022-11-10T04:29:34.808Z,2.17
2022-11-10T04:31:56.620Z,1.70
2022-11-10T04:34:19.876Z,1.63
2022-11-10T04:36:43.938Z,1.50
2022-11-10T04:39:06.836Z,1.50
2022-11-10T04:41:30.438Z,1.90
2022-11-10T04:43:52.763Z,1.30
2022-11-10T04:46:23.574Z,1.50
2022-11-10T04:48:45.470Z,1.70
2022-11-10T04:51:09.147Z,1.70
2022-11-10T04:53:31.158Z,2.10
2022-11-10T04:55:54.681Z,2.60
2022-11-10T04:58:16.715Z,2.03
2022-11-10T05:00:39.735Z,1.93
2022-11-10T05:03:01.990Z,1.53
2022-11-10T05:05:23.878Z,1.23
2022-11-10T05:07:49.764Z,1.50
2022-11-10T05:10:11.520Z,1.67
2022-11-10T05:12:33.481Z,2.10
2022-11-10T05:14:55.987Z,1.40
2022-11-10T05:17:18.319Z,1.60
2022-11-10T05:19:40.027Z,1.90
2022-11-10T05:22:02.155Z,1.47
2022-11-10T05:24:25.600Z,1.70
2022-11-10T05:26:47.632Z,1.90
2022-11-10T05:29:09.845Z,1.83
2022-11-10T05:31:31.635Z,2.37
2022-11-10T05:33:53.663Z,1.87
2022-11-10T05:36:15.567Z,1.73
2022-11-10T05:38:42.966Z,1.57
2022-11-10T05:41:07.039Z,1.80
2022-11-10T05:43:28.906Z,1.93
2022-11-10T05:45:50.796Z,2.10
2022-11-10T05:48:12.898Z,2.13
2022-11-10T05:50:34.724Z,2.17
2022-11-10T05:52:56.990Z,2.07
2022-11-10T05:55:21.797Z,1.83
2022-11-10T05:57:45.746Z,2.50
2022-11-10T06:00:09.722Z,2.00
2022-11-10T06:02:31.601Z,3.00
2022-11-10T06:04:53.954Z,2.87
2022-11-10T06:07:15.823Z,2.73
2022-11-10T06:09:37.999Z,3.50
2022-11-10T06:11:59.706Z,3.50
2022-11-10T06:14:23.178Z,2.50
2022-11-10T06:16:45.398Z,2.40
2022-11-10T06:19:07.545Z,2.20
2022-11-10T06:21:29.695Z,2.83
2022-11-10T06:23:51.686Z,2.90
2022-11-10T06:26:13.842Z,3.10
2022-11-10T06:28:35.856Z,2.50
2022-11-10T06:30:59.501Z,2.00
2022-11-10T06:33:21.979Z,2.80
2022-11-10T06:35:44.279Z,4.03
2022-11-10T06:38:07.885Z,2.10
2022-11-10T06:40:30.566Z,2.30
2022-11-10T06:42:52.561Z,2.70
2022-11-10T06:45:14.498Z,3.03
2022-11-10T06:47:38.082Z,3.10
2022-11-10T06:50:00.124Z,3.57
2022-11-10T06:52:22.625Z,3.53
2022-11-10T06:54:44.518Z,3.20
2022-11-10T06:57:06.496Z,2.77
2022-11-10T06:59:28.593Z,3.20
2022-11-10T07:01:50.506Z,2.63
2022-11-10T07:04:20.310Z,2.80
2022-11-10T07:06:43.031Z,2.50
2022-11-10T07:09:05.155Z,3.10
2022-11-10T07:11:27.269Z,4.20
2022-11-10T07:13:49.345Z,2.67
2022-11-10T07:16:12.109Z,3.53
2022-11-10T07:18:34.116Z,4.27
2022-11-10T07:20:57.550Z,5.30
2022-11-10T07:23:19.888Z,6.23
2022-11-10T07:25:42.005Z,3.30
2022-11-10T07:28:06.920Z,4.20
2022-11-10T07:30:29.231Z,3.50
2022-11-10T07:32:59.175Z,3.63
2022-11-10T07:35:21.391Z,3.13
2022-11-10T07:37:44.914Z,4.10
2022-11-10T07:40:08.285Z,2.57
2022-11-10T07:42:30.728Z,2.70
2022-11-10T07:44:52.674Z,2.20
2022-11-10T07:47:14.849Z,2.43
2022-11-10T07:49:36.631Z,2.50
2022-11-10T07:51:58.823Z,3.40
2022-11-10T07:54:21.796Z,3.67
2022-11-10T07:56:43.878Z,2.23
2022-11-10T07:59:06.223Z,3.73
2022-11-10T08:01:28.108Z,4.90
2022-11-10T08:03:50.159Z,4.27
2022-11-10T08:06:12.112Z,3.40
2022-11-10T08:08:34.023Z,4.40
2022-11-10T08:10:58.800Z,3.70
2022-11-10T08:13:21.226Z,3.60
2022-11-10T08:15:43.671Z,3.27
2022-11-10T08:18:08.001Z,4.80
2022-11-10T08:20:30.689Z,5.40
2022-11-10T08:22:57.933Z,3.53
2022-11-10T08:25:19.621Z,3.63
2022-11-10T08:27:42.939Z,4.00
2022-11-10T08:30:05.811Z,3.90
2022-11-10T08:32:27.732Z,3.37
2022-11-10T08:34:49.850Z,3.93
2022-11-10T08:37:11.863Z,3.80
2022-11-10T08:39:40.555Z,2.63
2022-11-10T08:42:02.474Z,3.03
2022-11-10T08:44:25.785Z,2.77
2022-11-10T08:46:47.874Z,3.80
2022-11-10T08:49:10.228Z,3.90
2022-11-10T08:51:37.831Z,3.00
2022-11-10T08:54:01.088Z,2.60
2022-11-10T08:56:23.239Z,2.60
2022-11-10T08:58:52.847Z,2.40
2022-11-10T09:01:16.686Z,2.67
2022-11-10T09:03:39.151Z,2.70
2022-11-10T09:06:00.904Z,1.90
2022-11-10T09:08:23.035Z,2.47
2022-11-10T09:10:47.839Z,2.73
2022-11-10T09:13:10.732Z,1.90
2022-11-10T09:15:33.263Z,2.57
2022-11-10T09:17:58.960Z,3.13
2022-11-10T09:20:21.170Z,2.50
2022-11-10T09:22:42.963Z,2.20
2022-11-10T09:25:05.982Z,2.47
2022-11-10T09:27:27.744Z,1.80
2022-11-10T09:29:49.764Z,2.47
2022-11-10T09:32:11.865Z,2.50
2022-11-10T09:34:35.160Z,2.00
2022-11-10T09:36:57.128Z,1.93
2022-11-10T09:39:19.316Z,1.60
2022-11-10T09:41:43.776Z,2.40
2022-11-10T09:44:13.003Z,2.70
2022-11-10T09:46:39.387Z,2.03
2022-11-10T09:49:06.007Z,2.30
2022-11-10T09:51:34.231Z,2.03
2022-11-10T09:53:58.406Z,1.70
2022-11-10T09:56:27.228Z,3.10
2022-11-10T09:58:49.371Z,2.63
2022-11-10T10:01:26.601Z,2.70
2022-11-10T10:03:53.718Z,2.20
2022-11-10T10:06:17.207Z,2.50
2022-11-10T10:08:51.622Z,1.27
2022-11-10T10:11:27.980Z,1.37
2022-11-10T10:14:09.129Z,1.70
2022-11-10T10:16:37.548Z,1.70
2022-11-10T10:19:08.746Z,2.40
2022-11-10T10:21:43.534Z,2.57
2022-11-10T10:24:16.614Z,1.30
2022-11-10T10:26:50.406Z,2.37
2022-11-10T10:29:20.285Z,3.20
2022-11-10T10:31:44.685Z,2.20
2022-11-10T10:34:13.604Z,1.63
2022-11-10T10:36:35.239Z,1.60
2022-11-10T10:39:01.404Z,1.90
2022-11-10T10:41:26.500Z,1.87
2022-11-10T10:43:51.332Z,1.90
2022-11-10T10:46:15.843Z,2.00
2022-11-10T10:48:38.022Z,1.90
2022-11-10T10:51:00.126Z,2.10
2022-11-10T10:53:23.718Z,2.13
2022-11-10T10:55:48.671Z,1.80
2022-11-10T10:58:22.895Z,1.90
2022-11-10T11:00:46.796Z,1.57
2022-11-10T11:03:20.192Z,1.47
2022-11-10T11:05:42.093Z,2.90
2022-11-10T11:08:04.590Z,1.70
2022-11-10T11:10:28.769Z,2.33
2022-11-10T11:12:50.737Z,1.57
2022-11-10T11:15:23.332Z,1.60
2022-11-10T11:17:55.099Z,1.90
2022-11-10T11:20:17.193Z,3.10
2022-11-10T11:22:51.220Z,1.47
2022-11-10T11:25:24.077Z,1.80
2022-11-10T11:27:59.656Z,1.57
2022-11-10T11:30:24.353Z,1.90
2022-11-10T11:33:30.781Z,1.53
2022-11-10T11:35:59.207Z,2.30
2022-11-10T11:38:29.261Z,1.40
2022-11-10T11:40:57.599Z,2.17
2022-11-10T11:43:34.491Z,1.43
2022-11-10T11:46:06.307Z,2.50
2022-11-10T11:48:41.476Z,3.23
2022-11-10T11:51:13.826Z,2.70
2022-11-10T11:53:50.382Z,1.80
2022-11-10T11:56:22.321Z,1.73
2022-11-10T11:58:46.385Z,1.33
2022-11-10T12:01:22.038Z,1.70
2022-11-10T12:04:24.649Z,1.80
2022-11-10T12:07:00.056Z,1.70
2022-11-10T12:09:30.134Z,1.83
2022-11-10T12:12:06.620Z,1.60
2022-11-10T12:14:43.675Z,1.83
2022-11-10T12:17:17.412Z,2.93
2022-11-10T12:19:50.082Z,1.83
2022-11-10T12:22:21.681Z,2.30
2022-11-10T12:24:57.134Z,1.50
2022-11-10T12:27:25.915Z,1.27
2022-11-10T12:29:54.467Z,1.10
2022-11-10T12:32:24.416Z,1.00
2022-11-10T12:34:51.974Z,1.30
2022-11-10T12:37:24.877Z,1.47
2022-11-10T12:39:55.363Z,1.33
2022-11-10T12:42:20.576Z,1.20
2022-11-10T12:44:56.609Z,1.90
2022-11-10T12:47:21.490Z,3.30
2022-11-10T12:49:55.629Z,2.47
2022-11-10T12:52:22.823Z,3.97
2022-11-10T12:54:47.411Z,2.83
2022-11-10T12:57:16.343Z,2.20
2022-11-10T12:59:40.203Z,3.30
2022-11-10T13:02:05.840Z,2.40
2022-11-10T13:04:30.247Z,3.00
2022-11-10T13:06:55.114Z,3.00
2022-11-10T13:09:25.095Z,1.80
2022-11-10T13:12:06.445Z,1.93
2022-11-10T13:14:30.613Z,2.03
2022-11-10T13:16:54.270Z,1.70
2022-11-10T13:19:52.207Z,2.07
2022-11-10T13:22:30.901Z,1.77
2022-11-10T13:24:53.000Z,2.20
2022-11-10T13:27:53.653Z,3.17
2022-11-10T13:30:38.415Z,2.60
2022-11-10T13:33:31.888Z,1.80
2022-11-10T13:35:57.129Z,2.13
2022-11-10T13:38:37.096Z,2.10
2022-11-10T13:41:23.729Z,2.37
2022-11-10T13:43:49.941Z,2.73
2022-11-10T13:46:12.260Z,2.60
2022-11-10T13:48:56.614Z,2.63
2022-11-10T13:51:31.687Z,3.33
2022-11-10T13:54:04.383Z,2.20
2022-11-10T13:56:42.646Z,2.70
2022-11-10T13:59:17.777Z,2.50
2022-11-10T14:01:40.212Z,3.30
2022-11-10T14:04:02.929Z,2.27
2022-11-10T14:06:31.638Z,3.90
2022-11-10T14:08:57.494Z,3.77
2022-11-10T14:11:26.481Z,3.20
2022-11-10T14:13:53.854Z,2.83
2022-11-10T14:16:20.143Z,2.70
2022-11-10T14:18:47.770Z,3.60
2022-11-10T14:21:13.347Z,2.83
2022-11-10T14:23:45.794Z,4.17
2022-11-10T14:26:18.006Z,3.40
2022-11-10T14:28:39.875Z,2.70
2022-11-10T14:31:01.873Z,4.70
2022-11-10T14:33:25.912Z,3.07
2022-11-10T14:35:51.121Z,2.90
2022-11-10T14:38:21.141Z,3.07
2022-11-10T14:40:45.082Z,2.30
2022-11-10T14:43:07.024Z,3.60
2022-11-10T14:45:29.559Z,4.67
2022-11-10T14:47:54.054Z,2.53
2022-11-10T14:50:19.273Z,2.77
2022-11-10T14:52:42.564Z,0.80
2022-11-10T14:55:09.552Z,1.27
2022-11-10T14:57:32.865Z,3.13
2022-11-10T14:59:55.100Z,4.37
2022-11-10T15:02:20.168Z,2.60
2022-11-10T15:04:45.722Z,1.30
2022-11-10T15:07:08.205Z,6.87
2022-11-10T15:09:32.773Z,4.80
2022-11-10T15:12:07.454Z,2.20
2022-11-10T15:14:39.605Z,3.30
2022-11-10T15:17:02.840Z,2.77
2022-11-10T15:19:28.641Z,3.43
2022-11-10T15:21:50.909Z,3.33
2022-11-10T15:24:14.055Z,4.00
2022-11-10T15:26:41.016Z,3.90
2022-11-10T15:29:03.127Z,4.20
2022-11-10T15:31:28.095Z,3.17
2022-11-10T15:33:51.995Z,3.30
2022-11-10T15:36:16.792Z,3.10
2022-11-10T15:38:38.556Z,4.00
2022-11-10T15:41:27.356Z,5.10
2022-11-10T15:43:49.679Z,3.20
2022-11-10T15:46:18.151Z,3.40
2022-11-10T15:48:43.902Z,6.00
2022-11-10T15:51:06.219Z,3.43
2022-11-10T15:53:32.138Z,2.77
2022-11-10T15:55:54.343Z,3.40
2022-11-10T15:58:19.077Z,2.50
2022-11-10T16:00:41.248Z,6.00
2022-11-10T16:03:03.232Z,4.50
2022-11-10T16:05:26.524Z,2.43
2022-11-10T16:07:48.593Z,4.33
2022-11-10T16:10:10.702Z,2.80
2022-11-10T16:12:33.388Z,3.93
2022-11-10T16:14:55.982Z,4.97
2022-11-10T16:17:18.600Z,5.57
2022-11-10T16:19:40.224Z,5.93
2022-11-10T16:22:03.608Z,5.50
2022-11-10T16:24:25.670Z,4.00
2022-11-10T16:26:47.689Z,4.00
2022-11-10T16:29:13.671Z,3.30
2022-11-10T16:31:36.781Z,4.70
2022-11-10T16:33:58.905Z,4.47
2022-11-10T16:36:25.867Z,4.67
2022-11-10T16:38:49.245Z,4.83
2022-11-10T16:41:13.981Z,4.13
2022-11-10T16:43:36.625Z,5.80
2022-11-10T16:46:00.985Z,2.43
2022-11-10T16:48:25.442Z,3.03
2022-11-10T16:50:47.629Z,3.47
2022-11-10T16:53:15.701Z,4.30
2022-11-10T16:55:38.932Z,5.80
2022-11-10T16:58:00.900Z,4.13
2022-11-10T17:00:23.175Z,5.37
2022-11-10T17:02:51.310Z,5.13
2022-11-10T17:05:15.163Z,11.37
2022-11-10T17:07:38.488Z,24.03
2022-11-10T17:10:01.801Z,15.97
2022-11-10T17:12:25.323Z,6.83
2022-11-10T17:14:47.508Z,5.90
2022-11-10T17:17:15.137Z,5.20
2022-11-10T17:19:37.129Z,5.53
2022-11-10T17:21:59.192Z,4.90
2022-11-10T17:24:21.647Z,3.00
2022-11-10T17:26:44.205Z,5.57
2022-11-10T17:29:07.760Z,4.17
2022-11-10T17:31:29.988Z,4.03
2022-11-10T17:33:52.036Z,4.10
2022-11-10T17:36:18.182Z,4.63
2022-11-10T17:38:41.694Z,3.70
2022-11-10T17:41:03.767Z,3.23
2022-11-10T17:43:26.426Z,3.63
2022-11-10T17:45:50.015Z,3.33
2022-11-10T17:48:12.626Z,3.47
2022-11-10T17:50:35.956Z,3.40
2022-11-10T17:52:57.582Z,4.03
2022-11-10T17:55:21.555Z,2.80
2022-11-10T17:57:43.618Z,2.70
2022-11-10T18:00:06.328Z,2.80
2022-11-10T18:02:29.603Z,3.03
2022-11-10T18:04:51.777Z,1.97
2022-11-10T18:07:13.918Z,2.47
2022-11-10T18:09:35.819Z,3.17
2022-11-10T18:11:57.850Z,4.10
2022-11-10T18:14:19.903Z,3.40
2022-11-10T18:16:41.943Z,3.33
2022-11-10T18:19:05.733Z,2.97
2022-11-10T18:21:27.776Z,2.53
2022-11-10T18:23:49.877Z,2.70
2022-11-10T18:26:12.401Z,1.87
2022-11-10T18:28:35.040Z,2.20
2022-11-10T18:30:56.838Z,3.10
2022-11-10T18:33:21.560Z,5.30
2022-11-10T18:35:45.131Z,3.03
2022-11-10T18:38:07.771Z,3.00
2022-11-10T18:40:29.941Z,3.13
2022-11-10T18:42:52.017Z,2.80
2022-11-10T18:45:14.045Z,2.10
2022-11-10T18:47:36.218Z,2.43
2022-11-10T18:49:58.272Z,2.37
2022-11-10T18:52:21.621Z,3.20
2022-11-10T18:54:43.798Z,2.10
2022-11-10T18:57:06.012Z,2.30
2022-11-10T18:59:28.136Z,2.60
2022-11-10T19:01:50.863Z,2.77
2022-11-10T19:04:13.755Z,2.90
2022-11-10T19:06:36.774Z,2.43
2022-11-10T19:09:00.131Z,2.03
2022-11-10T19:11:22.697Z,2.27
2022-11-10T19:13:45.798Z,2.80
2022-11-10T19:16:09.804Z,2.70
2022-11-10T19:18:32.292Z,3.00
2022-11-10T19:20:54.216Z,3.20
2022-11-10T19:23:16.063Z,3.20
2022-11-10T19:25:39.380Z,3.13
2022-11-10T19:28:01.416Z,3.03
2022-11-10T19:30:23.531Z,3.10
2022-11-10T19:32:45.521Z,2.90
2022-11-10T19:35:08.019Z,3.80
2022-11-10T19:37:34.360Z,7.33
2022-11-10T19:39:56.395Z,4.43
2022-11-10T19:42:19.870Z,2.50
2022-11-10T19:44:41.904Z,10.47
2022-11-10T19:47:04.048Z,5.03
2022-11-10T19:49:26.184Z,3.80
2022-11-10T19:51:50.239Z,4.17
2022-11-10T19:54:13.564Z,4.00
2022-11-10T19:56:35.697Z,4.37
2022-11-10T19:58:58.687Z,3.80
2022-11-10T20:01:21.728Z,3.50
2022-11-10T20:03:44.544Z,4.20
2022-11-10T20:06:09.737Z,4.10
2022-11-10T20:08:32.057Z,3.90
2022-11-10T20:10:53.974Z,4.63
2022-11-10T20:13:16.056Z,3.70
2022-11-10T20:15:41.428Z,3.83
2022-11-10T20:18:03.452Z,3.77
2022-11-10T20:20:25.436Z,4.57
2022-11-10T20:22:47.594Z,3.40
2022-11-10T20:25:10.170Z,4.00
2022-11-10T20:27:32.610Z,4.57
2022-11-10T20:29:54.675Z,4.90
2022-11-10T20:32:18.165Z,6.70
2022-11-10T20:34:40.209Z,5.40
2022-11-10T20:37:02.439Z,3.80
2022-11-10T20:39:24.309Z,3.60
2022-11-10T20:41:46.724Z,4.90
2022-11-10T20:44:08.635Z,4.17
2022-11-10T20:46:53.563Z,5.33
2022-11-10T20:49:13.783Z,5.20
2022-11-10T20:51:35.802Z,4.90
2022-11-10T20:54:00.471Z,4.90
2022-11-10T20:56:28.264Z,5.40
2022-11-10T20:58:52.319Z,5.20
2022-11-10T21:01:15.652Z,5.60
2022-11-10T21:03:37.556Z,7.40
2022-11-10T21:06:01.383Z,6.50
2022-11-10T21:08:23.610Z,6.37
2022-11-10T21:10:51.816Z,5.80
2022-11-10T21:13:12.858Z,6.37
2022-11-10T21:15:38.432Z,6.17
2022-11-10T21:18:00.435Z,6.53
2022-11-10T21:20:22.535Z,7.37
2022-11-10T21:22:45.855Z,5.60
2022-11-10T21:25:56.119Z,5.50
2022-11-10T21:28:18.224Z,11.50
2022-11-10T21:30:40.304Z,8.27
2022-11-10T21:33:02.329Z,5.97
2022-11-10T21:35:24.586Z,6.03
2022-11-10T21:37:46.557Z,5.80
2022-11-10T21:40:09.850Z,5.77
2022-11-10T21:42:35.572Z,6.00
2022-11-10T21:44:57.770Z,5.00
2022-11-10T21:47:20.312Z,7.00
2022-11-10T21:49:42.567Z,5.93
2022-11-10T21:52:04.717Z,5.77
2022-11-10T21:54:26.932Z,6.53
2022-11-10T21:56:48.966Z,5.67
2022-11-10T21:59:12.444Z,6.50
2022-11-10T22:01:34.535Z,6.40
2022-11-10T22:03:56.488Z,5.83
2022-11-10T22:06:19.784Z,6.40
2022-11-10T22:08:43.294Z,6.00
2022-11-10T22:11:23.856Z,5.53
2022-11-10T22:14:03.539Z,6.33
2022-11-10T22:16:46.958Z,6.13
2022-11-10T22:19:09.903Z,4.70
2022-11-10T22:21:31.644Z,5.87
2022-11-10T22:24:11.507Z,4.97
2022-11-10T22:26:33.693Z,5.17
2022-11-10T22:28:55.831Z,4.80
2022-11-10T22:31:17.856Z,5.27
2022-11-10T22:33:42.566Z,5.30
2022-11-10T22:36:05.951Z,5.70
2022-11-10T22:38:27.879Z,5.17
2022-11-10T22:41:06.924Z,6.60
2022-11-10T22:43:46.761Z,5.00
2022-11-10T22:46:08.552Z,4.97
2022-11-10T22:48:32.593Z,4.30
2022-11-10T22:50:56.790Z,6.17
2022-11-10T22:53:18.535Z,6.10
2022-11-10T22:55:40.506Z,5.50
2022-11-10T22:58:02.525Z,6.17
2022-11-10T23:00:24.671Z,6.03
2022-11-10T23:02:46.659Z,5.97
2022-11-10T23:05:09.021Z,7.03
2022-11-10T23:07:32.238Z,6.83
2022-11-10T23:09:54.262Z,7.30
2022-11-10T23:12:18.279Z,7.93
2022-11-10T23:14:40.062Z,7.87
2022-11-10T23:17:02.057Z,8.10
2022-11-10T23:19:24.123Z,8.03
2022-11-10T23:21:46.219Z,9.07
2022-11-10T23:24:10.139Z,7.03
2022-11-10T23:26:33.886Z,6.97
2022-11-10T23:28:56.029Z,6.43
2022-11-10T23:31:20.421Z,5.70
2022-11-10T23:33:44.165Z,5.23
2022-11-10T23:36:06.846Z,6.23
2022-11-10T23:38:31.650Z,6.33
2022-11-10T23:40:57.976Z,6.10
2022-11-10T23:43:20.142Z,5.67
2022-11-10T23:46:05.369Z,13.43
2022-11-10T23:48:24.891Z,7.70
2022-11-10T23:50:47.003Z,6.30
2022-11-10T23:53:09.256Z,5.43
2022-11-10T23:55:31.313Z,5.83
2022-11-10T23:57:54.759Z,6.50
